CYPE

Peace River Airport

Peace River, Alberta, Canada
METAR CYPE 140100Z 25015G21KT 15SM BKN180 01/M07 A2953 RMK AC7 SLP027
Observed Flight Rules
Dec-14 @ 01:00 UTC (an hour ago) Visual Flight Rules
Wind Visibility Clouds
250° at 15 knots
 Gusting to 21 knots
15 miles
  • Broken at 18,000' AGL
Temperatures Readings
Current 1°C / 34°F
Dewpoint -7°C / 19°F
Humidity 56%
Altimeter 29.53" Hg
Pressure 1002.7 hPa
Elevation 571
METAR CYPE 140100Z 25015G21KT 15SM BKN180 01/M07 A2953 RMK AC7 SLP027
Observed Flight Rules
Dec-14 @ 01:00 UTC
(an hour ago)
VFR
Wind Visibility
250° at 15 knots
 Gusting to 21 knots
15 miles
Clouds
  • Broken at 18,000' AGL
Temperature Dewpoint
1°C / 34°F -7°C / 19°F
Humidity Altimeter Pressure
56% 29.53" Hg 1002.7 hPa